Time;durP1;ratioP1;P1;durP2;ratioP2;P2;SDS_P1;SDS_P2;PMS_P1;PMS_P2;Temp;Humidity;BMP_temperature;BMP_pressure;BME280_temperature;BME280_humidity;BME280_pressure;Samples;Min_cycle;Max_cycle;Signal;HPM_P1;HPM_P2
2022/07/20 00:01:12;;;;;;;7.72;4.53;;;;;;;20.52;64.47;157676.88;5006542;28;20084;-78
2022/07/20 00:03:38;;;;;;;11.73;4.65;;;;;;;20.46;64.40;157660.13;4991592;28;20048;-78
2022/07/20 00:06:04;;;;;;;8.48;4.13;;;;;;;20.37;65.25;157639.44;4994461;28;20264;-79
2022/07/20 00:11:20;;;;;;;6.45;4.40;;;;;;;20.31;64.88;157622.69;5007388;28;20041;-81
2022/07/20 00:13:52;;;;;;;6.63;4.80;;;;;;;20.28;65.20;157614.94;4976094;28;20064;-77
2022/07/20 00:16:23;;;;;;;5.35;4.32;;;;;;;20.28;65.75;157614.94;4998537;28;20088;-79
2022/07/20 00:18:49;;;;;;;6.28;4.55;;;;;;;20.32;65.67;157625.25;5005303;28;20042;-79
2022/07/20 00:21:14;;;;;;;8.10;4.65;;;;;;;20.37;65.61;157639.44;5008298;28;20073;-79
2022/07/20 00:23:40;;;;;;;8.02;4.50;;;;;;;20.38;65.88;157642.03;5023916;28;20954;-80
2022/07/20 00:26:07;;;;;;;7.63;4.25;;;;;;;20.32;66.36;157626.53;5024518;28;20034;-77
2022/07/20 00:28:33;;;;;;;7.75;4.85;;;;;;;20.25;66.56;157607.19;5001784;28;20464;-79
2022/07/20 00:30:59;;;;;;;10.45;4.68;;;;;;;20.14;66.14;157581.41;5007680;28;20084;-82
2022/07/20 00:33:24;;;;;;;6.45;4.68;;;;;;;20.05;66.66;157556.88;5007878;28;20070;-80
2022/07/20 00:35:50;;;;;;;6.97;4.25;;;;;;;19.97;67.13;157537.53;4990095;28;20516;-79
2022/07/20 00:38:16;;;;;;;9.57;4.82;;;;;;;19.95;66.97;157533.66;5003505;28;20047;-78
2022/07/20 00:40:42;;;;;;;8.43;4.55;;;;;;;19.84;67.09;157505.28;5004151;28;20036;-80
2022/07/20 00:43:07;;;;;;;6.93;4.43;;;;;;;19.76;68.00;157485.94;4991394;28;20047;-78
2022/07/20 00:45:33;;;;;;;9.52;4.88;;;;;;;19.69;67.94;157466.53;4994458;28;20133;-78
2022/07/20 00:47:59;;;;;;;11.05;4.50;;;;;;;19.63;68.43;157452.34;5010447;28;20045;-79
2022/07/20 00:50:25;;;;;;;6.90;4.47;;;;;;;19.60;68.94;157444.59;5011453;28;20037;-79
2022/07/20 00:52:50;;;;;;;9.80;5.15;;;;;;;19.54;69.78;157429.13;5008334;28;20037;-80
2022/07/20 00:55:16;;;;;;;10.80;4.93;;;;;;;19.49;69.59;157416.22;5020163;28;20033;-79
2022/07/20 00:57:42;;;;;;;6.70;4.80;;;;;;;19.49;70.11;157416.22;5001574;28;20497;-79
2022/07/20 01:00:09;;;;;;;6.13;4.63;;;;;;;19.42;70.80;157399.44;5006536;28;20044;-79
2022/07/20 01:02:35;;;;;;;13.93;4.63;;;;;;;19.34;71.42;157378.81;5024175;28;20029;-78
2022/07/20 01:05:02;;;;;;;6.18;4.30;;;;;;;19.26;72.54;157359.47;5019615;28;20146;-79
2022/07/20 01:07:28;;;;;;;7.55;4.30;;;;;;;19.18;72.69;157340.16;4989358;28;20048;-80
2022/07/20 01:09:53;;;;;;;10.38;5.05;;;;;;;19.17;72.57;157337.53;5002037;28;20451;-79
2022/07/20 01:12:19;;;;;;;5.93;4.72;;;;;;;19.18;72.76;157338.88;4987745;28;20053;-77
2022/07/20 01:14:44;;;;;;;7.07;4.28;;;;;;;19.20;73.12;157345.28;4992996;28;20030;-78
2022/07/20 01:17:10;;;;;;;6.60;4.38;;;;;;;19.22;73.41;157349.19;4996461;28;20091;-79
2022/07/20 01:19:36;;;;;;;6.70;4.70;;;;;;;19.15;73.84;157332.38;5002529;28;20087;-78
2022/07/20 01:22:03;;;;;;;7.90;4.75;;;;;;;19.03;74.01;157301.47;5023528;28;20041;-79
2022/07/20 01:24:29;;;;;;;9.38;4.95;;;;;;;18.96;74.55;157284.69;5019678;28;20030;-78
2022/07/20 01:26:55;;;;;;;5.45;4.25;;;;;;;18.88;76.24;157262.78;4999570;28;20038;-78
2022/07/20 01:29:21;;;;;;;10.05;4.50;;;;;;;18.77;75.50;157236.94;5010768;28;20129;-77
2022/07/20 01:31:47;;;;;;;9.05;4.60;;;;;;;18.75;77.36;157230.50;4997807;28;20041;-79
2022/07/20 01:34:12;;;;;;;9.80;4.85;;;;;;;18.77;77.07;157236.94;5022808;28;20038;-78
2022/07/20 01:36:38;;;;;;;5.72;4.53;;;;;;;18.71;78.91;157220.19;4993731;28;20144;-80
2022/07/20 01:39:04;;;;;;;7.53;4.55;;;;;;;18.69;78.63;157216.31;5011416;28;20045;-79
2022/07/20 01:41:30;;;;;;;6.32;5.00;;;;;;;18.64;77.65;157204.69;4997361;28;20434;-81
2022/07/20 01:43:55;;;;;;;7.25;4.25;;;;;;;18.65;77.30;157207.28;4994411;28;20030;-79
2022/07/20 01:46:21;;;;;;;10.65;4.75;;;;;;;18.63;77.88;157202.16;4994051;28;20141;-79
2022/07/20 01:48:47;;;;;;;8.02;4.63;;;;;;;18.72;76.71;157222.75;5009710;28;20042;-79
2022/07/20 01:51:13;;;;;;;7.25;4.72;;;;;;;18.76;75.89;157234.38;4990048;28;20042;-79
2022/07/20 01:53:38;;;;;;;9.52;5.20;;;;;;;18.68;76.61;157215.06;4994159;28;20033;-77
2022/07/20 01:56:04;;;;;;;5.20;4.30;;;;;;;18.75;77.65;157230.50;4996166;28;20041;-81
2022/07/20 01:58:30;;;;;;;6.03;4.60;;;;;;;18.64;76.88;157204.69;5008190;28;20044;-79
2022/07/20 02:00:55;;;;;;;7.55;4.57;;;;;;;18.58;77.53;157187.97;5007737;28;20148;-79
2022/07/20 02:03:21;;;;;;;5.50;4.65;;;;;;;18.62;78.07;157198.28;5022325;28;20952;-80
2022/07/20 02:05:46;;;;;;;7.45;4.80;;;;;;;18.75;76.15;157231.78;5016753;28;20409;-80
2022/07/20 02:08:12;;;;;;;5.65;4.80;;;;;;;18.95;75.27;157280.81;5020976;28;20054;-80
2022/07/20 02:10:38;;;;;;;7.63;4.35;;;;;;;18.86;75.54;157260.19;5002153;28;20041;-79
2022/07/20 02:13:04;;;;;;;10.40;5.07;;;;;;;19.00;74.83;157295.00;5023512;28;20417;-80
2022/07/20 02:18:14;;;;;;;7.82;4.43;;;;;;;18.82;74.46;157248.63;5020943;28;20060;-78
2022/07/20 02:20:41;;;;;;;6.78;5.22;;;;;;;18.85;74.75;157256.31;5005719;28;20490;-79
2022/07/20 02:23:08;;;;;;;8.35;4.85;;;;;;;18.82;74.87;157249.88;5004399;28;20498;-79
2022/07/20 02:25:36;;;;;;;7.30;4.93;;;;;;;18.84;74.27;157253.75;5020741;28;20077;-79
2022/07/20 02:28:03;;;;;;;7.68;5.32;;;;;;;18.75;75.22;157231.78;4984991;28;20124;-80
2022/07/20 02:30:29;;;;;;;5.50;4.90;;;;;;;18.67;75.98;157211.19;5010504;28;20045;-81
2022/07/20 02:32:54;;;;;;;7.95;5.05;;;;;;;18.57;76.26;157185.38;5022925;28;20040;-82
2022/07/20 02:35:20;;;;;;;9.88;4.72;;;;;;;18.55;76.19;157180.22;5003425;28;20045;-79
2022/07/20 02:37:46;;;;;;;9.48;4.97;;;;;;;18.46;77.01;157159.59;4992719;28;20044;-80
2022/07/20 02:40:11;;;;;;;8.00;5.03;;;;;;;18.39;77.23;157141.56;4993457;28;20045;-80
2022/07/20 02:42:37;;;;;;;7.90;4.85;;;;;;;18.48;77.31;157163.47;4994678;28;20038;-81
2022/07/20 02:45:03;;;;;;;10.43;4.68;;;;;;;18.46;77.30;157158.31;5014375;28;20038;-80
2022/07/20 02:47:28;;;;;;;12.35;4.90;;;;;;;18.41;78.38;157146.69;5020991;28;20049;-78
2022/07/20 02:49:54;;;;;;;8.55;5.05;;;;;;;18.43;77.70;157150.56;5012554;28;20553;-80
2022/07/20 02:52:20;;;;;;;9.18;4.57;;;;;;;18.36;77.80;157132.53;4989636;28;20101;-80
2022/07/20 02:54:45;;;;;;;6.85;4.65;;;;;;;18.34;78.67;157127.38;4990859;28;20037;-79
2022/07/20 02:57:11;;;;;;;7.18;4.88;;;;;;;18.23;78.68;157101.63;5001364;28;20038;-79
2022/07/20 02:59:37;;;;;;;6.65;4.88;;;;;;;18.15;78.83;157080.97;5001080;28;20065;-78
2022/07/20 03:02:02;;;;;;;8.93;4.80;;;;;;;18.09;79.27;157065.50;5002292;28;20041;-78
2022/07/20 03:04:28;;;;;;;6.43;4.80;;;;;;;18.04;79.21;157052.63;4990376;28;20041;-79
2022/07/20 03:06:53;;;;;;;8.18;4.88;;;;;;;18.09;79.39;157065.50;5012989;28;20455;-78
2022/07/20 03:09:19;;;;;;;5.95;4.70;;;;;;;18.09;79.07;157065.50;5036931;28;20021;-79
2022/07/20 03:11:45;;;;;;;6.97;4.90;;;;;;;18.12;79.62;157073.25;5005602;28;20038;-81
2022/07/20 03:14:10;;;;;;;6.82;5.13;;;;;;;18.14;79.93;157078.41;5018722;28;20453;-81
2022/07/20 03:16:36;;;;;;;8.65;5.32;;;;;;;18.08;80.08;157062.91;5013995;28;20129;-79
2022/07/20 03:19:01;;;;;;;9.02;5.32;;;;;;;18.13;80.16;157074.53;5000339;28;20037;-80
2022/07/20 03:21:27;;;;;;;8.50;5.00;;;;;;;18.17;79.89;157084.84;5017118;28;20061;-80
2022/07/20 03:23:53;;;;;;;14.52;5.35;;;;;;;18.26;79.89;157108.03;5015583;28;20038;-79
2022/07/20 03:26:21;;;;;;;8.60;5.15;;;;;;;18.14;80.03;157078.41;5003460;28;20627;-78
2022/07/20 03:28:47;;;;;;;9.27;5.35;;;;;;;18.17;79.96;157084.84;4998381;28;20033;-79
2022/07/20 03:31:13;;;;;;;11.23;5.63;;;;;;;18.08;80.64;157062.91;4978256;28;20506;-79
2022/07/20 03:33:38;;;;;;;9.93;5.38;;;;;;;18.02;80.87;157047.47;5014889;28;20069;-80
2022/07/20 03:36:04;;;;;;;8.27;5.18;;;;;;;17.99;80.88;157041.03;5010591;28;20172;-79
2022/07/20 03:38:30;;;;;;;10.43;5.00;;;;;;;17.94;81.86;157028.13;5029960;28;20030;-79
2022/07/20 03:40:55;;;;;;;10.07;5.05;;;;;;;17.86;81.37;157007.53;5000360;28;20034;-78
2022/07/20 03:43:25;;;;;;;11.07;4.85;;;;;;;17.82;81.88;156997.13;5013661;28;20056;-79
2022/07/20 03:45:52;;;;;;;7.50;5.45;;;;;;;17.91;82.13;157020.38;4995384;28;20564;-80
2022/07/20 03:48:18;;;;;;;7.53;4.90;;;;;;;17.82;81.86;156998.47;5007816;28;20042;-79
2022/07/20 03:50:44;;;;;;;11.20;5.18;;;;;;;17.96;82.30;157033.28;5031768;28;20034;-79
2022/07/20 03:53:10;;;;;;;9.25;4.63;;;;;;;17.89;82.56;157015.25;5023879;28;20042;-78
2022/07/20 03:55:36;;;;;;;8.57;4.90;;;;;;;17.92;83.09;157021.72;5013207;28;20033;-78
2022/07/20 03:58:01;;;;;;;11.63;5.15;;;;;;;17.90;82.90;157017.84;4997420;28;20052;-80
2022/07/20 04:00:27;;;;;;;9.43;5.18;;;;;;;17.87;83.11;157011.38;5003539;28;20037;-79
2022/07/20 04:02:53;;;;;;;9.38;5.10;;;;;;;17.93;83.05;157024.25;4988750;28;20124;-79
2022/07/20 04:05:18;;;;;;;6.32;4.78;;;;;;;18.03;84.05;157050.06;5020906;28;20049;-78
2022/07/20 04:07:44;;;;;;;9.55;5.13;;;;;;;18.06;83.80;157057.75;5007203;28;20057;-78
2022/07/20 04:10:10;;;;;;;7.00;4.97;;;;;;;18.08;82.82;157062.91;5011492;28;20037;-78
2022/07/20 04:12:35;;;;;;;6.13;4.75;;;;;;;18.13;83.16;157075.81;5018411;28;20405;-79
2022/07/20 04:15:01;;;;;;;14.57;5.53;;;;;;;18.14;83.30;157077.09;4972977;28;20443;-78
2022/07/20 04:17:27;;;;;;;10.77;4.95;;;;;;;18.18;83.14;157088.72;4985600;28;20041;-80
2022/07/20 04:19:52;;;;;;;7.85;4.82;;;;;;;18.24;83.16;157104.16;5009646;28;20104;-80
2022/07/20 04:22:18;;;;;;;10.25;5.30;;;;;;;18.41;83.83;157146.69;5021915;28;20125;-78
2022/07/20 04:24:44;;;;;;;6.25;4.65;;;;;;;18.42;82.78;157149.31;5009996;28;20465;-80
2022/07/20 04:27:09;;;;;;;10.23;5.03;;;;;;;18.44;82.09;157154.47;5008961;28;20132;-78
2022/07/20 04:29:35;;;;;;;8.05;4.72;;;;;;;18.47;81.34;157162.16;5015015;28;20521;-79
2022/07/20 04:32:00;;;;;;;10.68;5.00;;;;;;;18.65;81.35;157206.03;5011432;28;20140;-80
2022/07/20 04:34:27;;;;;;;8.93;5.22;;;;;;;18.74;80.65;157227.91;5025920;28;20120;-78
2022/07/20 04:36:54;;;;;;;11.35;5.07;;;;;;;18.80;79.93;157244.75;5001632;28;20030;-79
2022/07/20 04:39:19;;;;;;;8.40;4.93;;;;;;;18.88;80.27;157264.06;5005939;28;20508;-79
2022/07/20 04:41:45;;;;;;;7.30;4.95;;;;;;;18.88;80.67;157262.78;4990229;28;20066;-78
2022/07/20 04:44:11;;;;;;;8.20;4.70;;;;;;;18.94;80.15;157278.25;5019280;28;20393;-79
2022/07/20 04:46:37;;;;;;;12.98;5.13;;;;;;;19.01;80.12;157297.59;5014488;28;20037;-79
2022/07/20 04:49:02;;;;;;;10.18;4.95;;;;;;;19.01;82.91;157296.31;5015349;28;20046;-78
2022/07/20 04:51:28;;;;;;;7.00;5.07;;;;;;;19.20;80.28;157345.28;4993982;28;20042;-79
2022/07/20 04:53:54;;;;;;;11.27;5.07;;;;;;;19.29;78.38;157365.91;5001404;28;20480;-81
2022/07/20 04:56:20;;;;;;;8.27;4.57;;;;;;;19.51;75.65;157422.66;4997329;28;20038;-80
2022/07/20 04:58:50;;;;;;;10.95;4.80;;;;;;;19.56;77.90;157434.28;4990522;28;20036;-79
2022/07/20 05:01:16;;;;;;;10.98;5.32;;;;;;;19.61;75.36;157448.47;4993254;28;20060;-79
2022/07/20 05:03:41;;;;;;;6.30;4.60;;;;;;;19.82;74.37;157500.13;5008373;28;20117;-79
2022/07/20 05:06:07;;;;;;;9.27;4.90;;;;;;;19.91;73.79;157522.03;5025454;28;20555;-80
2022/07/20 05:08:33;;;;;;;6.32;4.45;;;;;;;20.05;73.10;157558.16;4994154;28;20044;-79
2022/07/20 05:10:59;;;;;;;8.20;4.57;;;;;;;20.14;72.05;157581.41;5006570;28;20034;-78
2022/07/20 05:13:24;;;;;;;12.00;5.25;;;;;;;20.25;71.94;157608.50;5009904;28;20034;-79
2022/07/20 05:15:50;;;;;;;7.93;4.68;;;;;;;20.31;72.63;157623.97;5006811;28;20501;-79
2022/07/20 05:18:15;;;;;;;8.63;4.97;;;;;;;20.31;72.30;157623.97;4999306;28;20076;-78
2022/07/20 05:20:41;;;;;;;12.90;4.88;;;;;;;20.43;72.18;157653.63;5026014;28;20037;-81
2022/07/20 05:23:06;;;;;;;9.10;5.05;;;;;;;20.64;71.08;157705.31;4983404;28;20042;-81
2022/07/20 05:25:33;;;;;;;8.40;4.55;;;;;;;20.69;70.57;157718.22;5009356;28;20096;-79
2022/07/20 05:27:58;;;;;;;13.95;4.85;;;;;;;20.82;71.22;157750.50;5005450;28;20081;-79
2022/07/20 05:30:24;;;;;;;9.52;4.95;;;;;;;20.86;70.37;157760.81;4989728;28;20161;-79
2022/07/20 05:32:50;;;;;;;10.15;4.68;;;;;;;20.96;69.51;157787.94;4984265;28;20042;-78
2022/07/20 05:35:15;;;;;;;9.57;4.70;;;;;;;21.10;69.45;157822.75;5021337;28;20038;-79
2022/07/20 05:37:41;;;;;;;9.75;4.93;;;;;;;21.19;68.64;157846.00;5018027;28;20041;-79
2022/07/20 05:40:07;;;;;;;7.95;4.47;;;;;;;21.30;68.42;157871.81;4999193;28;20037;-81
2022/07/20 05:42:33;;;;;;;10.02;4.43;;;;;;;21.43;67.39;157904.09;5000817;28;20045;-79
2022/07/20 05:44:59;;;;;;;10.10;4.43;;;;;;;21.60;67.30;157948.03;4995859;28;20053;-80
2022/07/20 05:47:24;;;;;;;10.63;4.43;;;;;;;21.72;67.02;157979.03;4995689;28;20046;-79
2022/07/20 05:49:50;;;;;;;11.90;4.00;;;;;;;21.82;66.54;158003.56;5007574;28;20049;-80
2022/07/20 05:52:16;;;;;;;13.68;4.47;;;;;;;21.93;66.21;158031.97;5010143;28;20088;-79
2022/07/20 05:54:42;;;;;;;9.98;4.05;;;;;;;22.01;66.94;158050.06;5009746;28;20034;-80
2022/07/20 05:57:07;;;;;;;8.73;4.47;;;;;;;22.09;65.73;158070.72;5005891;28;20037;-79
2022/07/20 05:59:33;;;;;;;11.93;4.57;;;;;;;22.19;65.28;158096.56;5012090;28;20513;-79
2022/07/20 06:01:59;;;;;;;8.73;4.53;;;;;;;22.25;66.74;158112.09;5002738;28;20034;-79
2022/07/20 06:04:24;;;;;;;9.63;4.65;;;;;;;22.36;66.98;158139.22;5019654;28;20555;-80
2022/07/20 06:06:50;;;;;;;7.45;4.10;;;;;;;22.44;66.96;158158.59;5005337;28;20153;-80
2022/07/20 06:09:16;;;;;;;11.48;4.45;;;;;;;22.51;67.18;158177.97;4993304;28;20053;-80
2022/07/20 06:11:41;;;;;;;9.55;4.45;;;;;;;22.65;65.19;158211.56;5004008;28;20053;-80
2022/07/20 06:14:07;;;;;;;9.43;4.35;;;;;;;22.71;64.10;158227.06;4997562;28;20041;-80
2022/07/20 06:16:32;;;;;;;7.57;4.75;;;;;;;22.77;64.43;158242.53;4979125;28;20406;-78
2022/07/20 06:18:58;;;;;;;7.97;4.63;;;;;;;22.81;65.07;158252.91;5014320;28;20106;-79
2022/07/20 06:21:24;;;;;;;7.57;4.60;;;;;;;22.87;64.32;158268.41;5013619;28;20044;-79
2022/07/20 06:23:49;;;;;;;12.07;4.55;;;;;;;23.04;63.03;158311.09;5006643;28;20034;-79
2022/07/20 06:26:15;;;;;;;5.43;4.00;;;;;;;23.05;62.70;158312.38;4986253;28;20057;-80
2022/07/20 06:28:41;;;;;;;10.10;4.50;;;;;;;23.12;64.29;158330.47;5014983;28;20130;-79
2022/07/20 06:31:07;;;;;;;7.82;4.45;;;;;;;23.26;65.36;158365.34;5008786;28;20038;-78
2022/07/20 06:33:32;;;;;;;7.38;3.80;;;;;;;23.36;62.90;158389.88;5013112;28;20046;-79
2022/07/20 06:35:58;;;;;;;6.90;4.57;;;;;;;23.55;61.77;158437.75;5009046;28;20038;-79
2022/07/20 06:38:23;;;;;;;8.90;3.97;;;;;;;23.64;61.45;158462.28;5015613;28;20123;-78
2022/07/20 06:40:49;;;;;;;7.57;4.47;;;;;;;23.79;60.57;158498.50;5013959;28;20121;-78
2022/07/20 06:43:14;;;;;;;10.70;4.63;;;;;;;23.93;60.15;158534.72;5012850;28;20037;-77
2022/07/20 06:45:40;;;;;;;9.40;4.15;;;;;;;24.10;58.98;158577.38;5012279;28;20382;-75
2022/07/20 06:48:06;;;;;;;7.50;4.10;;;;;;;24.36;58.34;158643.31;4993909;28;20030;-76
2022/07/20 06:50:31;;;;;;;7.40;4.28;;;;;;;24.44;58.47;158664.00;5020026;28;20029;-76
2022/07/20 06:52:57;;;;;;;5.45;3.67;;;;;;;24.56;58.06;158692.50;5009761;28;20037;-78
2022/07/20 06:55:23;;;;;;;7.60;4.60;;;;;;;24.67;56.59;158720.94;5023484;28;20030;-76
2022/07/20 06:57:48;;;;;;;5.25;3.90;;;;;;;24.68;55.14;158724.81;5006326;28;20457;-78
2022/07/20 07:00:14;;;;;;;9.23;4.43;;;;;;;24.70;56.02;158727.44;5006121;28;20038;-76
2022/07/20 07:02:40;;;;;;;8.50;4.20;;;;;;;24.78;56.52;158749.38;4995346;28;20039;-77
2022/07/20 07:05:07;;;;;;;11.55;4.32;;;;;;;24.87;56.20;158771.41;5010409;28;20064;-76
2022/07/20 07:07:32;;;;;;;9.02;4.20;;;;;;;25.00;55.49;158805.00;5006326;28;20069;-76
2022/07/20 07:09:58;;;;;;;4.93;3.88;;;;;;;25.16;54.91;158845.09;5020373;28;20457;-76
2022/07/20 07:12:24;;;;;;;11.75;4.55;;;;;;;25.31;54.54;158881.38;5005729;28;20041;-76
2022/07/20 07:14:49;;;;;;;8.68;4.40;;;;;;;25.49;53.48;158926.69;5009487;28;20034;-76
2022/07/20 07:17:15;;;;;;;9.13;4.28;;;;;;;25.53;53.76;158938.28;5002283;28;20038;-76
2022/07/20 07:19:41;;;;;;;9.52;4.80;;;;;;;25.57;52.78;158947.34;5027134;28;20091;-77
2022/07/20 07:22:07;;;;;;;11.20;4.20;;;;;;;25.69;52.83;158978.38;5029219;28;20040;-77
2022/07/20 07:24:33;;;;;;;9.32;4.18;;;;;;;25.74;52.19;158991.34;5013197;28;20109;-77
2022/07/20 07:26:59;;;;;;;10.52;4.10;;;;;;;25.81;53.19;159008.16;4997013;28;20582;-77
2022/07/20 07:29:25;;;;;;;7.22;4.15;;;;;;;26.01;52.90;159060.00;5002989;28;20076;-76
2022/07/20 07:31:52;;;;;;;4.90;3.85;;;;;;;26.22;52.12;159113.03;5020275;28;20022;-78
2022/07/20 07:34:17;;;;;;;9.63;3.90;;;;;;;26.27;50.98;159123.38;5030690;28;20139;-77
2022/07/20 07:36:43;;;;;;;10.48;4.07;;;;;;;26.32;52.12;159136.31;4994992;28;20485;-77
2022/07/20 07:39:09;;;;;;;8.20;3.80;;;;;;;26.54;51.16;159191.94;5008904;28;20030;-76
2022/07/20 07:41:35;;;;;;;7.15;4.05;;;;;;;26.70;50.64;159233.44;5022001;28;20038;-77
2022/07/20 07:44:00;;;;;;;9.07;4.28;;;;;;;26.78;50.08;159254.13;5008795;28;20041;-77
2022/07/20 07:46:26;;;;;;;9.52;4.03;;;;;;;26.83;51.20;159265.81;5001301;28;20034;-77
2022/07/20 07:48:52;;;;;;;8.82;3.97;;;;;;;27.09;50.97;159330.53;5006778;28;20037;-76
2022/07/20 07:51:18;;;;;;;8.05;4.30;;;;;;;27.20;50.24;159359.03;5006963;28;20034;-78
2022/07/20 07:53:43;;;;;;;11.38;4.82;;;;;;;27.28;49.72;159379.78;5013516;28;20064;-77
2022/07/20 07:56:11;;;;;;;7.82;4.20;;;;;;;27.36;50.37;159399.19;5008785;28;20031;-77
2022/07/20 07:58:36;;;;;;;8.25;3.97;;;;;;;27.55;50.35;159447.09;4977795;28;20076;-77
2022/07/20 08:01:02;;;;;;;7.00;4.22;;;;;;;27.70;48.57;159485.94;5009527;28;20690;-76
2022/07/20 08:03:28;;;;;;;8.27;3.90;;;;;;;27.76;48.05;159500.19;5025800;28;20057;-76
2022/07/20 08:05:53;;;;;;;10.70;3.95;;;;;;;27.84;48.47;159519.59;5008629;28;20045;-78
2022/07/20 08:08:19;;;;;;;7.20;3.78;;;;;;;27.88;48.67;159531.28;5026222;28;20041;-78
2022/07/20 08:10:45;;;;;;;6.40;3.80;;;;;;;27.98;47.82;159555.94;5030845;28;20049;-77
2022/07/20 08:13:12;;;;;;;6.63;4.43;;;;;;;28.15;48.21;159599.97;5009174;28;20491;-78
2022/07/20 08:15:38;;;;;;;8.90;4.32;;;;;;;28.26;48.39;159625.88;5024986;28;20065;-77
2022/07/20 08:18:04;;;;;;;6.45;4.38;;;;;;;28.30;48.24;159636.25;5000249;28;20549;-78
2022/07/20 08:20:30;;;;;;;7.75;3.97;;;;;;;28.37;46.72;159653.06;5009299;28;20055;-77
2022/07/20 08:22:55;;;;;;;12.55;4.32;;;;;;;28.50;48.17;159686.72;5009304;28;20030;-78
2022/07/20 08:25:22;;;;;;;14.60;4.05;;;;;;;28.63;47.42;159720.50;5007349;28;20053;-77
2022/07/20 08:27:48;;;;;;;9.77;4.18;;;;;;;28.80;47.63;159763.25;5022085;28;20540;-77
2022/07/20 08:30:14;;;;;;;14.27;3.97;;;;;;;29.05;45.56;159825.47;5020164;28;20109;-77
2022/07/20 08:32:40;;;;;;;9.95;4.43;;;;;;;29.14;46.79;159848.84;5001476;28;20121;-77
2022/07/20 08:35:06;;;;;;;14.43;4.28;;;;;;;29.27;46.13;159881.19;5006408;28;20050;-77
2022/07/20 08:37:31;;;;;;;8.57;3.88;;;;;;;29.40;46.38;159913.59;5012162;28;20041;-77
2022/07/20 08:39:57;;;;;;;8.18;3.85;;;;;;;29.50;45.88;159939.53;5006483;28;20034;-77
2022/07/20 08:42:23;;;;;;;9.27;3.95;;;;;;;29.70;45.00;159990.06;5026407;28;20033;-78
2022/07/20 08:44:49;;;;;;;11.35;4.07;;;;;;;29.79;46.19;160013.44;5017598;28;20241;-77
2022/07/20 08:47:16;;;;;;;9.02;3.90;;;;;;;29.86;44.80;160030.31;5003088;28;20030;-77
2022/07/20 08:49:46;;;;;;;9.40;4.00;;;;;;;29.79;43.24;160012.16;5011397;28;20667;-77
2022/07/20 08:52:11;;;;;;;11.90;3.83;;;;;;;29.84;42.80;160026.41;5009112;28;20119;-77
2022/07/20 08:54:38;;;;;;;11.77;3.67;;;;;;;29.96;43.63;160056.22;5023341;28;20121;-77
2022/07/20 08:57:16;;;;;;;8.95;4.05;;;;;;;30.04;42.83;160076.94;5010182;28;20171;-79
2022/07/20 08:59:46;;;;;;;10.75;3.83;;;;;;;30.20;43.47;160115.88;5002438;28;20050;-76
2022/07/20 09:02:12;;;;;;;6.05;3.78;;;;;;;30.38;42.74;160162.56;5019413;28;20050;-76
2022/07/20 09:04:56;;;;;;;9.88;3.60;;;;;;;30.58;43.05;160211.84;5027993;28;20037;-78
2022/07/20 09:07:41;;;;;;;13.30;3.83;;;;;;;30.74;41.97;160253.34;4999243;28;20042;-78
2022/07/20 09:10:13;;;;;;;11.85;3.80;;;;;;;30.81;42.78;160271.47;4990143;28;20105;-78
2022/07/20 09:12:57;;;;;;;7.37;3.90;;;;;;;31.02;42.59;160323.41;5022056;28;20053;-77
2022/07/20 09:15:36;;;;;;;10.38;3.83;;;;;;;31.22;40.87;160374.00;5011644;28;20299;-77
2022/07/20 09:18:15;;;;;;;10.70;3.80;;;;;;;31.32;41.39;160398.63;5011733;28;20038;-77
2022/07/20 09:20:44;;;;;;;10.05;3.88;;;;;;;31.49;40.86;160442.75;5008924;28;20050;-77
2022/07/20 09:23:13;;;;;;;7.85;3.35;;;;;;;31.67;42.72;160486.91;5021563;28;20025;-77
2022/07/20 09:25:51;;;;;;;6.97;3.88;;;;;;;31.89;40.44;160543.97;5010837;28;20038;-77
2022/07/20 09:28:17;;;;;;;7.65;3.55;;;;;;;31.99;39.57;160569.91;5010942;28;20034;-77
2022/07/20 09:30:52;;;;;;;9.13;3.20;;;;;;;32.16;40.48;160611.50;4991357;28;20056;-77
2022/07/20 09:33:27;;;;;;;9.07;3.67;;;;;;;32.37;39.54;160664.69;4981285;28;20076;-77
2022/07/20 09:35:54;;;;;;;6.38;3.50;;;;;;;32.47;39.16;160689.31;4987746;28;20097;-78
2022/07/20 09:38:20;;;;;;;16.33;4.20;;;;;;;32.61;38.20;160724.38;5019015;28;20049;-76
2022/07/20 09:40:46;;;;;;;9.95;3.45;;;;;;;32.76;37.46;160763.38;5009956;28;20056;-80
2022/07/20 09:43:34;;;;;;;9.82;3.63;;;;;;;32.75;37.49;160760.75;4990789;28;20495;-77
2022/07/20 09:46:16;;;;;;;7.45;3.67;;;;;;;32.99;38.06;160821.75;5027739;28;20041;-79
2022/07/20 09:48:44;;;;;;;8.10;3.63;;;;;;;33.12;36.85;160855.53;4996696;28;20501;-77
2022/07/20 09:51:20;;;;;;;8.60;3.00;;;;;;;33.28;36.29;160895.75;5015220;28;20132;-78
2022/07/20 09:53:50;;;;;;;7.97;3.35;;;;;;;33.33;37.13;160907.47;5004458;28;20037;-77
2022/07/20 09:56:17;;;;;;;11.20;3.55;;;;;;;33.38;35.27;160920.47;5009635;28;20133;-76
2022/07/20 09:58:49;;;;;;;5.47;3.25;;;;;;;33.62;37.04;160981.44;5005660;28;20041;-79
2022/07/20 10:01:23;;;;;;;7.65;3.55;;;;;;;33.76;35.64;161016.56;5016508;28;20038;-78
2022/07/20 10:03:51;;;;;;;8.25;3.13;;;;;;;33.74;35.22;161011.38;5016003;28;20033;-78
2022/07/20 10:06:18;;;;;;;14.65;3.10;;;;;;;33.85;34.76;161038.59;5011706;28;20068;-75
2022/07/20 10:08:45;;;;;;;10.82;3.42;;;;;;;34.09;35.44;161099.63;5007197;28;20133;-77
2022/07/20 10:11:11;;;;;;;10.88;3.53;;;;;;;34.25;34.45;161139.97;5016471;28;20045;-77
2022/07/20 10:13:39;;;;;;;5.65;3.10;;;;;;;34.42;33.59;161184.09;5010162;28;20097;-78
2022/07/20 10:16:23;;;;;;;9.80;3.13;;;;;;;34.33;32.90;161162.00;5016645;28;20069;-77
2022/07/20 10:18:49;;;;;;;10.98;3.50;;;;;;;34.39;33.01;161175.00;5012919;28;20025;-78
2022/07/20 10:21:31;;;;;;;6.13;2.53;;;;;;;34.56;33.18;161219.16;5027605;28;20041;-78
2022/07/20 10:24:22;;;;;;;7.25;3.20;;;;;;;34.76;32.54;161268.56;5022374;28;20088;-77
2022/07/20 10:26:49;;;;;;;4.47;3.17;;;;;;;34.88;32.42;161299.72;5012816;28;20414;-78
2022/07/20 10:29:32;;;;;;;7.18;3.05;;;;;;;35.13;31.51;161363.34;5014010;28;20041;-79
2022/07/20 10:32:00;;;;;;;9.30;2.97;;;;;;;35.24;30.28;161391.97;5012233;28;20042;-77
2022/07/20 10:34:33;;;;;;;14.02;3.40;;;;;;;35.31;31.52;161407.59;5012131;28;20041;-76
2022/07/20 10:37:22;;;;;;;8.68;2.83;;;;;;;35.44;31.10;161441.38;5012162;28;20095;-77
2022/07/20 10:39:49;;;;;;;6.30;2.85;;;;;;;35.53;30.63;161463.41;5012596;28;20061;-77
2022/07/20 10:42:31;;;;;;;8.77;2.78;;;;;;;35.60;30.36;161482.94;5028173;28;20040;-77
2022/07/20 10:45:28;;;;;;;7.15;2.78;;;;;;;35.90;29.88;161557.03;5027541;28;20044;-77
2022/07/20 10:48:12;;;;;;;9.93;3.15;;;;;;;36.00;29.75;161583.03;4999560;28;20049;-78
2022/07/20 10:50:40;;;;;;;6.13;2.60;;;;;;;36.27;29.35;161651.94;5007063;28;20514;-76
2022/07/20 10:53:09;;;;;;;9.15;3.00;;;;;;;36.56;29.58;161724.69;5028635;28;20030;-78
2022/07/20 10:55:35;;;;;;;5.68;3.10;;;;;;;36.76;29.12;161775.44;5028945;28;20049;-78
2022/07/20 10:58:13;;;;;;;5.47;3.10;;;;;;;36.66;28.99;161750.75;5012787;28;20034;-79
2022/07/20 11:00:44;;;;;;;5.97;3.10;;;;;;;36.68;27.89;161754.66;5005212;28;20822;-77
2022/07/20 11:03:19;;;;;;;9.05;2.85;;;;;;;36.72;27.97;161765.06;5009841;28;20034;-78
2022/07/20 11:05:46;;;;;;;7.55;2.78;;;;;;;36.76;27.06;161775.44;5006185;28;20182;-78
2022/07/20 11:08:13;;;;;;;7.28;2.63;;;;;;;36.89;26.43;161807.94;5001333;28;20048;-79
2022/07/20 11:10:40;;;;;;;9.05;2.80;;;;;;;37.02;27.51;161841.72;4998797;28;20030;-77
2022/07/20 11:13:08;;;;;;;6.68;2.70;;;;;;;37.21;26.41;161889.88;5010085;28;20577;-77
2022/07/20 11:15:36;;;;;;;8.18;2.78;;;;;;;37.28;26.37;161906.75;5009814;28;20033;-77
2022/07/20 11:18:02;;;;;;;5.95;2.50;;;;;;;37.27;25.71;161904.16;5011750;28;20498;-76
2022/07/20 11:20:28;;;;;;;9.77;2.80;;;;;;;37.20;25.07;161888.59;5009065;28;20037;-78
2022/07/20 11:22:56;;;;;;;8.52;2.75;;;;;;;37.45;25.84;161949.63;5007171;28;20486;-77
2022/07/20 11:25:24;;;;;;;7.93;2.63;;;;;;;37.57;24.86;161982.16;5003002;28;20076;-79
2022/07/20 11:28:03;;;;;;;7.63;2.70;;;;;;;37.64;24.88;161997.78;5004451;28;20084;-78
2022/07/20 11:30:35;;;;;;;9.02;2.80;;;;;;;37.67;23.85;162005.59;4987807;28;20061;-79